Time;durP1;ratioP1;P1;durP2;ratioP2;P2;SDS_P1;SDS_P2;PMS_P1;PMS_P2;Temp;Humidity;BMP_temperature;BMP_pressure;BME280_temperature;BME280_humidity;BME280_pressure;Samples;Min_cycle;Max_cycle;Signal;HPM_P1;HPM_P2
2020/12/28 20:47:43;;;;;;;6.60;1.02;;;;;;;17.81;43.23;97833.44;5031493;27;96590;-52
2020/12/28 20:50:09;;;;;;;4.03;1.17;;;;;;;18.25;42.56;97830.53;5025617;28;96952;-52
2020/12/28 20:52:35;;;;;;;5.03;1.10;;;;;;;18.85;41.45;97832.72;5019393;27;97450;-52
2020/12/28 20:55:01;;;;;;;4.00;1.00;;;;;;;19.44;40.26;97830.28;5032452;22;99628;-48
2020/12/28 20:57:27;;;;;;;2.83;0.85;;;;;;;19.96;39.40;97829.16;4996912;28;96651;-51
2020/12/28 20:59:52;;;;;;;3.90;1.20;;;;;;;20.41;38.81;97830.25;4993806;28;96693;-54
2020/12/28 21:02:18;;;;;;;6.10;1.08;;;;;;;20.80;38.17;97825.53;5004984;28;97333;-52
2020/12/28 21:04:44;;;;;;;2.03;1.05;;;;;;;21.14;37.55;97826.41;5018442;28;126183;-59
2020/12/28 21:07:09;;;;;;;1.75;1.17;;;;;;;21.43;36.94;97820.59;4983872;28;98225;-58
2020/12/28 21:09:34;;;;;;;4.45;1.10;;;;;;;21.67;36.08;97821.31;5004609;28;110371;-58
2020/12/28 21:12:00;;;;;;;3.15;1.30;;;;;;;21.88;35.86;97825.81;5003371;28;109670;-59
2020/12/28 21:14:29;;;;;;;1.80;0.75;;;;;;;22.07;35.23;97825.16;5003087;28;126598;-60
2020/12/28 21:16:55;;;;;;;4.03;0.88;;;;;;;22.23;34.93;97817.56;5004602;28;96766;-60
2020/12/28 21:19:21;;;;;;;2.05;0.90;;;;;;;22.38;34.74;97819.94;5002445;28;96751;-60
2020/12/28 21:21:50;;;;;;;1.95;1.30;;;;;;;22.50;34.32;97818.91;4988885;28;97144;-60
2020/12/28 21:24:16;;;;;;;2.47;0.70;;;;;;;22.62;34.35;97827.66;5011836;28;97307;-60
2020/12/28 21:26:41;;;;;;;1.95;0.70;;;;;;;22.70;34.04;97825.19;5011122;28;101201;-60
2020/12/28 21:29:06;;;;;;;3.55;0.98;;;;;;;22.78;33.74;97825.38;5001481;28;107857;-60
2020/12/28 21:31:32;;;;;;;1.60;0.90;;;;;;;22.85;33.56;97817.69;5005534;28;98171;-58
2020/12/28 21:33:57;;;;;;;3.75;3.53;;;;;;;22.91;33.40;97819.84;5005605;28;123519;-59
2020/12/28 21:36:23;;;;;;;2.45;1.10;;;;;;;22.97;33.08;97824.59;5010243;28;110301;-51
2020/12/28 21:38:49;;;;;;;3.47;1.05;;;;;;;23.04;33.25;97826.75;5008171;28;96917;-54
2020/12/28 21:41:14;;;;;;;3.00;1.00;;;;;;;23.09;32.88;97830.72;5035754;22;127218;-56
2020/12/28 21:43:40;;;;;;;1.60;0.82;;;;;;;23.11;32.90;97823.44;5022361;28;120196;-56
2020/12/28 21:46:08;;;;;;;2.45;0.90;;;;;;;23.12;32.77;97821.63;5028271;28;97439;-56
2020/12/28 21:48:34;;;;;;;2.28;1.20;;;;;;;23.13;32.57;97821.50;5029399;22;96795;-55
2020/12/28 21:50:59;;;;;;;3.13;0.77;;;;;;;23.15;32.69;97824.03;5030533;27;117341;-55
2020/12/28 21:53:25;;;;;;;1.60;0.98;;;;;;;23.15;32.38;97818.69;5031260;27;97343;-55
2020/12/28 21:55:50;;;;;;;1.73;0.90;;;;;;;23.16;32.15;97825.72;5032323;27;108885;-55
2020/12/28 21:58:16;;;;;;;3.25;1.08;;;;;;;23.16;31.99;97825.72;5029577;28;96662;-55
2020/12/28 22:00:41;;;;;;;2.22;1.00;;;;;;;23.15;31.99;97832.00;5019197;28;97379;-55
2020/12/28 22:03:07;;;;;;;2.40;1.77;;;;;;;23.16;32.22;97831.88;5007233;28;126555;-55
2020/12/28 22:05:32;;;;;;;1.52;0.90;;;;;;;23.15;31.93;97837.31;5018141;28;103198;-55
2020/12/28 22:07:59;;;;;;;3.08;0.80;;;;;;;23.14;31.74;97830.31;5005875;28;96704;-55
2020/12/28 22:10:24;;;;;;;1.60;0.93;;;;;;;23.13;31.55;97826.81;5020441;28;126499;-55
2020/12/28 22:12:52;;;;;;;1.85;0.70;;;;;;;23.13;31.97;97839.25;5004006;28;126449;-55
2020/12/28 22:15:18;;;;;;;2.58;0.90;;;;;;;23.12;31.71;97840.22;4993732;28;96715;-55
2020/12/28 22:17:43;;;;;;;1.58;0.90;;;;;;;23.12;31.89;97842.88;5018172;28;109821;-55
2020/12/28 22:20:09;;;;;;;1.27;0.80;;;;;;;23.11;31.87;97842.06;4996031;28;97536;-55
2020/12/28 22:22:34;;;;;;;1.05;0.65;;;;;;;23.10;31.43;97839.53;4996903;28;127476;-55
2020/12/28 22:24:59;;;;;;;1.60;0.82;;;;;;;23.10;31.76;97844.84;5004599;28;96656;-55
2020/12/28 22:27:27;;;;;;;1.33;0.80;;;;;;;23.08;31.77;97850.28;4987229;28;97482;-55
2020/12/28 22:29:53;;;;;;;1.38;0.63;;;;;;;23.08;31.66;97844.97;4983151;28;97538;-55
2020/12/28 22:32:18;;;;;;;1.33;0.82;;;;;;;23.06;31.34;97838.13;5000036;28;126559;-55
2020/12/28 22:34:44;;;;;;;1.73;0.60;;;;;;;23.06;31.59;97844.25;5006131;28;97772;-55
2020/12/28 22:37:10;;;;;;;1.10;0.80;;;;;;;23.04;31.73;97851.50;5005096;28;109863;-54
2020/12/28 22:39:35;;;;;;;1.33;0.93;;;;;;;23.03;31.42;97847.19;5013278;28;97485;-55
2020/12/28 22:42:01;;;;;;;3.42;0.80;;;;;;;23.04;31.69;97850.66;5008901;28;110722;-54
2020/12/28 22:44:26;;;;;;;2.67;0.60;;;;;;;23.03;31.47;97856.94;5017342;28;96725;-54
2020/12/28 22:46:52;;;;;;;1.00;0.80;;;;;;;23.02;31.37;97858.78;5017556;28;108088;-54
2020/12/28 22:49:17;;;;;;;2.47;0.70;;;;;;;23.02;31.16;97872.06;5017670;28;97371;-54
2020/12/28 22:51:43;;;;;;;2.03;0.95;;;;;;;23.02;31.49;97868.56;4999628;28;97216;-54
2020/12/28 22:54:11;;;;;;;2.60;0.90;;;;;;;23.00;31.12;97871.38;5010645;28;96607;-54
2020/12/28 22:56:37;;;;;;;0.95;0.70;;;;;;;23.00;30.94;97871.38;5025398;28;97078;-54
2020/12/28 22:59:02;;;;;;;1.20;0.90;;;;;;;22.99;31.37;97867.00;5017593;28;124648;-54
2020/12/28 23:01:28;;;;;;;1.90;0.75;;;;;;;22.98;31.39;97870.66;5011417;28;97255;-55
2020/12/28 23:03:54;;;;;;;3.30;0.77;;;;;;;22.97;31.33;97868.97;4982976;28;96686;-55
2020/12/28 23:06:26;;;;;;;0.80;0.60;;;;;;;22.96;31.14;97865.47;4989094;28;96710;-54
2020/12/28 23:08:52;;;;;;;0.90;0.80;;;;;;;22.96;31.17;97873.44;4993838;28;97783;-54
2020/12/28 23:11:17;;;;;;;1.30;0.90;;;;;;;22.95;31.09;97873.56;4983565;28;103237;-54
2020/12/28 23:13:42;;;;;;;1.20;0.90;;;;;;;22.95;30.91;97874.41;5005974;28;97274;-54
2020/12/28 23:16:08;;;;;;;0.93;0.60;;;;;;;22.94;31.46;97880.72;4998966;28;101107;-54
2020/12/28 23:18:33;;;;;;;1.63;0.77;;;;;;;22.93;31.25;97881.66;4981591;28;97624;-54
2020/12/28 23:21:05;;;;;;;2.13;0.70;;;;;;;22.93;31.14;97881.66;4980093;28;126563;-54
2020/12/28 23:23:30;;;;;;;0.85;0.65;;;;;;;22.92;30.88;97882.66;4979458;28;108435;-54
2020/12/28 23:25:56;;;;;;;1.00;0.90;;;;;;;22.93;31.11;97889.63;4997136;28;110002;-54
2020/12/28 23:28:21;;;;;;;1.35;0.70;;;;;;;22.93;31.01;97894.13;4995822;28;126796;-54
2020/12/28 23:30:48;;;;;;;1.55;0.73;;;;;;;22.92;31.38;97893.28;5006539;28;97271;-54
2020/12/28 23:33:13;;;;;;;1.52;0.82;;;;;;;22.91;30.92;97891.59;4997674;28;108456;-54
2020/12/28 23:35:39;;;;;;;1.10;0.88;;;;;;;22.91;31.26;97888.94;5000050;28;110046;-54
2020/12/28 23:38:04;;;;;;;0.82;0.63;;;;;;;22.91;31.12;97894.25;4998488;28;126867;-54
2020/12/28 23:40:30;;;;;;;1.35;0.80;;;;;;;22.91;30.68;97893.41;5000810;28;97262;-54
2020/12/28 23:42:55;;;;;;;2.60;1.17;;;;;;;22.91;30.81;97899.56;4997251;28;98346;-54
2020/12/28 23:45:21;;;;;;;1.13;0.77;;;;;;;22.92;31.18;97903.91;5012221;28;108586;-54
2020/12/28 23:47:46;;;;;;;0.90;0.73;;;;;;;22.91;31.02;97904.03;4949858;28;105274;-54
2020/12/28 23:50:11;;;;;;;0.85;0.65;;;;;;;22.91;30.82;97906.72;4998663;28;97470;-54
2020/12/28 23:52:38;;;;;;;1.70;0.73;;;;;;;22.90;30.72;97905.00;4999034;28;97138;-54
2020/12/28 23:55:03;;;;;;;1.17;0.77;;;;;;;22.89;30.87;97909.50;4985018;28;102287;-54
2020/12/28 23:57:29;;;;;;;1.02;0.65;;;;;;;22.89;30.69;97909.50;4998702;28;109495;-54
2020/12/28 23:59:54;;;;;;;1.25;1.00;;;;;;;22.89;30.93;97912.16;4998944;28;97249;-54
